Time;durP1;ratioP1;P1;durP2;ratioP2;P2;SDS_P1;SDS_P2;PMS_P1;PMS_P2;Temp;Humidity;BMP_temperature;BMP_pressure;BME280_temperature;BME280_humidity;BME280_pressure;Samples;Min_cycle;Max_cycle;Signal;HPM_P1;HPM_P2
2022/10/28 00:00:21;;;;;;;7.85;4.43;;;15.60;99.90;;;;;;6250336;22;20399;-85
2022/10/28 00:02:47;;;;;;;7.18;4.15;;;15.60;99.90;;;;;;6249173;22;20016;-86
2022/10/28 00:05:12;;;;;;;7.10;4.00;;;15.50;99.90;;;;;;6276872;22;20051;-86
2022/10/28 00:07:38;;;;;;;6.40;4.20;;;15.50;99.90;;;;;;6249028;22;20022;-86
2022/10/28 00:10:05;;;;;;;7.40;4.25;;;15.50;99.90;;;;;;6249277;22;20043;-86
2022/10/28 00:12:35;;;;;;;8.48;4.63;;;15.50;99.90;;;;;;6249915;22;20058;-86
2022/10/28 00:15:00;;;;;;;8.77;4.40;;;15.50;99.90;;;;;;6275927;22;20011;-86
2022/10/28 00:17:26;;;;;;;9.77;5.20;;;15.50;99.90;;;;;;6249911;22;20061;-86
2022/10/28 00:19:51;;;;;;;7.22;4.72;;;15.40;99.90;;;;;;6249803;22;20012;-87
2022/10/28 00:22:17;;;;;;;9.30;4.78;;;15.40;99.90;;;;;;6275905;22;20016;-87
2022/10/28 00:24:43;;;;;;;10.50;5.45;;;15.40;99.90;;;;;;6276358;22;20016;-87
2022/10/28 00:27:08;;;;;;;9.18;5.15;;;15.40;99.90;;;;;;6249837;22;20014;-87
2022/10/28 00:29:34;;;;;;;8.80;4.60;;;15.40;99.90;;;;;;6248420;22;20066;-86
2022/10/28 00:31:59;;;;;;;14.65;6.60;;;15.40;99.90;;;;;;6276877;22;20447;-86
2022/10/28 00:34:25;;;;;;;9.43;6.05;;;15.40;99.90;;;;;;6277235;22;20135;-87
2022/10/28 00:36:50;;;;;;;13.90;5.60;;;15.40;99.90;;;;;;6248835;22;20022;-86
2022/10/28 00:39:21;;;;;;;10.13;5.50;;;15.40;99.90;;;;;;6276694;22;20016;-86
2022/10/28 00:41:50;;;;;;;11.07;5.57;;;15.40;99.90;;;;;;6249189;22;20015;-86
2022/10/28 00:44:53;;;;;;;8.07;5.47;;;15.40;99.90;;;;;;6276202;22;20020;-87
2022/10/28 00:47:54;;;;;;;14.93;6.70;;;15.30;99.90;;;;;;6250049;22;20015;-86
2022/10/28 00:50:22;;;;;;;14.32;8.23;;;15.30;99.90;;;;;;6248379;22;20505;-86
2022/10/28 00:52:53;;;;;;;12.48;6.85;;;15.30;99.90;;;;;;6276989;22;20069;-87
2022/10/28 00:55:21;;;;;;;16.95;8.48;;;15.30;99.90;;;;;;6249222;22;20043;-87
2022/10/28 00:57:46;;;;;;;13.27;6.40;;;15.30;99.90;;;;;;6248654;22;20317;-86
2022/10/28 01:00:13;;;;;;;14.65;7.00;;;15.30;99.90;;;;;;6248778;22;20020;-86
2022/10/28 01:02:46;;;;;;;7.82;5.22;;;15.30;99.90;;;;;;6249650;22;20023;-86
2022/10/28 01:05:13;;;;;;;11.45;6.20;;;15.30;99.90;;;;;;6276422;22;20016;-85
2022/10/28 01:07:39;;;;;;;14.38;6.35;;;15.30;99.90;;;;;;6248807;22;20022;-85
2022/10/28 01:10:06;;;;;;;14.57;7.25;;;15.30;99.90;;;;;;6248833;22;20016;-86
2022/10/28 01:12:48;;;;;;;15.15;8.15;;;15.30;99.90;;;;;;6248689;22;20062;-86
2022/10/28 01:15:30;;;;;;;13.77;6.88;;;15.30;99.90;;;;;;6249240;22;20022;-86
2022/10/28 01:18:08;;;;;;;11.85;6.53;;;15.30;99.90;;;;;;6248321;22;20016;-86
2022/10/28 01:20:45;;;;;;;10.05;5.32;;;15.30;99.90;;;;;;6249071;22;20062;-86
2022/10/28 01:23:17;;;;;;;14.60;6.97;;;15.20;99.90;;;;;;6249586;22;20015;-85
2022/10/28 01:26:07;;;;;;;9.90;5.65;;;15.20;99.90;;;;;;6248161;22;20099;-86
2022/10/28 01:28:47;;;;;;;8.35;5.35;;;15.20;99.90;;;;;;6276597;22;20331;-86
2022/10/28 01:31:22;;;;;;;9.05;4.97;;;15.20;99.90;;;;;;6248520;22;20016;-86
2022/10/28 01:34:08;;;;;;;7.63;5.13;;;15.20;99.90;;;;;;6274801;22;20004;-86
2022/10/28 01:36:53;;;;;;;7.65;5.05;;;15.20;99.90;;;;;;6276880;22;20016;-86
2022/10/28 01:39:32;;;;;;;9.65;5.65;;;15.20;99.90;;;;;;6274445;22;20263;-86
2022/10/28 01:42:17;;;;;;;8.65;5.65;;;15.10;99.90;;;;;;6276198;22;20012;-85
2022/10/28 01:45:00;;;;;;;10.48;6.70;;;15.10;99.90;;;;;;6275493;22;20514;-86
2022/10/28 01:47:44;;;;;;;10.90;5.07;;;15.10;99.90;;;;;;6248536;22;20035;-86
2022/10/28 01:50:17;;;;;;;10.82;5.57;;;15.10;99.90;;;;;;6249643;22;20072;-86
2022/10/28 01:52:45;;;;;;;11.27;6.07;;;15.10;99.90;;;;;;6276107;22;20011;-86
2022/10/28 01:55:20;;;;;;;18.50;9.18;;;15.10;99.90;;;;;;6248516;22;20024;-86
2022/10/28 01:57:49;;;;;;;11.13;6.95;;;15.00;99.90;;;;;;6276123;22;20107;-87
2022/10/28 02:00:15;;;;;;;9.68;5.97;;;15.00;99.90;;;;;;6247840;22;20039;-87
2022/10/28 02:02:41;;;;;;;14.70;7.30;;;15.00;99.90;;;;;;6249026;22;20016;-87
2022/10/28 02:05:42;;;;;;;10.82;6.35;;;15.00;99.90;;;;;;6248576;22;20043;-87
2022/10/28 02:08:28;;;;;;;9.52;5.53;;;15.00;99.90;;;;;;6247774;22;20038;-87
2022/10/28 02:10:59;;;;;;;9.77;5.30;;;15.00;99.90;;;;;;6248744;22;20436;-87
2022/10/28 02:13:41;;;;;;;10.25;6.10;;;14.90;99.90;;;;;;6249204;22;20023;-87
2022/10/28 02:16:36;;;;;;;9.07;5.18;;;14.90;99.90;;;;;;6247572;22;20024;-87
2022/10/28 02:19:12;;;;;;;8.90;5.60;;;14.90;99.90;;;;;;6275875;22;20050;-86
2022/10/28 02:21:59;;;;;;;10.75;5.70;;;14.90;99.90;;;;;;6247974;22;20378;-87
2022/10/28 02:24:49;;;;;;;11.88;6.50;;;14.90;99.90;;;;;;6277031;22;20019;-86
2022/10/28 02:27:34;;;;;;;9.13;5.63;;;14.90;99.90;;;;;;6248935;22;20098;-87
2022/10/28 02:30:07;;;;;;;10.40;6.13;;;14.80;99.90;;;;;;6274944;22;20016;-86
2022/10/28 02:32:37;;;;;;;;;;;14.80;99.90;;;;;;6248877;22;20011;-87
2022/10/28 02:35:10;;;;;;;9.55;5.75;;;14.70;99.90;;;;;;6248519;22;19919;-87
2022/10/28 02:37:39;;;;;;;10.27;6.13;;;14.70;99.90;;;;;;6248349;22;20098;-86
2022/10/28 02:40:11;;;;;;;8.63;5.57;;;14.70;99.90;;;;;;6247886;22;20012;-86
2022/10/28 02:42:44;;;;;;;13.15;7.22;;;14.70;99.90;;;;;;6247182;22;20574;-86
2022/10/28 02:45:13;;;;;;;9.43;5.72;;;14.70;99.90;;;;;;6248499;22;20020;-86
2022/10/28 02:47:45;;;;;;;10.75;6.07;;;14.70;99.90;;;;;;6276234;22;20015;-87
2022/10/28 02:50:16;;;;;;;10.18;6.32;;;14.70;99.90;;;;;;6275230;22;20011;-86
2022/10/28 02:52:47;;;;;;;16.60;7.90;;;14.70;99.90;;;;;;6276163;22;20007;-87
2022/10/28 02:55:13;;;;;;;8.35;5.90;;;14.70;99.90;;;;;;6275993;22;20027;-86
2022/10/28 02:57:47;;;;;;;8.20;5.65;;;14.60;99.90;;;;;;6247304;22;20011;-86
2022/10/28 03:00:18;;;;;;;8.95;5.82;;;14.60;99.90;;;;;;6275642;22;20468;-87
2022/10/28 03:02:44;;;;;;;9.50;5.97;;;14.60;99.90;;;;;;6275871;22;20012;-87
2022/10/28 03:05:10;;;;;;;9.98;5.55;;;14.60;99.90;;;;;;6247800;22;20098;-87
2022/10/28 03:07:35;;;;;;;7.68;5.78;;;14.60;99.90;;;;;;6248766;22;20015;-87
2022/10/28 03:10:01;;;;;;;8.23;5.72;;;14.60;99.90;;;;;;6274874;22;20073;-86
2022/10/28 03:12:26;;;;;;;9.35;6.07;;;14.50;99.90;;;;;;6275182;22;20083;-86
2022/10/28 03:14:52;;;;;;;9.00;6.15;;;14.60;99.90;;;;;;6274733;22;20066;-86
2022/10/28 03:17:18;;;;;;;10.75;5.90;;;14.50;99.90;;;;;;6248113;22;20008;-86
2022/10/28 03:19:43;;;;;;;8.90;5.97;;;14.50;99.90;;;;;;6247770;22;20050;-87
2022/10/28 03:22:09;;;;;;;12.63;6.38;;;14.50;99.90;;;;;;6275593;22;20016;-86
2022/10/28 03:24:34;;;;;;;8.52;6.20;;;14.40;99.90;;;;;;6247193;22;20313;-86
2022/10/28 03:27:00;;;;;;;9.95;6.45;;;14.50;99.90;;;;;;6248456;22;20054;-87
2022/10/28 03:29:26;;;;;;;10.20;6.50;;;14.50;99.90;;;;;;6247909;22;20099;-86
2022/10/28 03:31:51;;;;;;;9.48;5.88;;;14.40;99.90;;;;;;6276652;22;20399;-86
2022/10/28 03:34:17;;;;;;;9.32;5.97;;;14.40;99.90;;;;;;6250523;22;20103;-86
2022/10/28 03:36:42;;;;;;;9.80;6.60;;;14.40;99.90;;;;;;6249999;22;20443;-87
2022/10/28 03:39:08;;;;;;;8.45;5.88;;;14.30;99.90;;;;;;6249575;22;20023;-87
2022/10/28 03:41:33;;;;;;;10.10;5.70;;;14.40;99.90;;;;;;6277542;22;20091;-87
2022/10/28 03:43:59;;;;;;;9.80;6.30;;;14.30;99.90;;;;;;6250057;22;20371;-87
2022/10/28 03:46:24;;;;;;;9.52;5.97;;;14.30;99.90;;;;;;6276163;22;20062;-87
2022/10/28 03:48:50;;;;;;;9.38;6.38;;;14.30;99.90;;;;;;6277299;22;20367;-87
2022/10/28 03:51:16;;;;;;;10.82;6.30;;;14.20;99.90;;;;;;6250267;22;20012;-87
2022/10/28 03:53:41;;;;;;;9.85;6.40;;;14.20;99.90;;;;;;6275586;22;20102;-87
2022/10/28 03:56:07;;;;;;;11.32;6.68;;;14.20;99.90;;;;;;6249221;22;20016;-88
2022/10/28 03:58:33;;;;;;;10.50;6.72;;;14.20;99.90;;;;;;6250116;22;20026;-87
2022/10/28 04:00:58;;;;;;;11.65;7.60;;;14.20;99.90;;;;;;6248631;22;20098;-87
2022/10/28 04:03:24;;;;;;;14.30;7.35;;;14.10;99.90;;;;;;6276861;22;20387;-87
2022/10/28 04:05:50;;;;;;;11.52;7.28;;;14.10;99.90;;;;;;6249371;22;20016;-87
2022/10/28 04:08:17;;;;;;;14.65;8.65;;;14.10;99.90;;;;;;6249047;22;20024;-86
2022/10/28 04:10:44;;;;;;;20.63;11.75;;;14.10;99.90;;;;;;6249530;22;20047;-86
2022/10/28 04:13:09;;;;;;;18.48;10.20;;;14.10;99.90;;;;;;6249904;22;20019;-87
2022/10/28 04:15:35;;;;;;;15.57;9.00;;;14.10;99.90;;;;;;6276306;22;20016;-87
2022/10/28 04:18:01;;;;;;;12.60;7.95;;;14.10;99.90;;;;;;6250310;22;20446;-86
2022/10/28 04:20:27;;;;;;;12.00;7.40;;;14.10;99.90;;;;;;6249743;22;20073;-86
2022/10/28 04:22:53;;;;;;;11.50;7.60;;;14.10;99.90;;;;;;6248831;22;20015;-87
2022/10/28 04:25:22;;;;;;;12.15;7.10;;;14.10;99.90;;;;;;6277142;22;20023;-86
2022/10/28 04:27:48;;;;;;;11.55;7.50;;;14.10;99.90;;;;;;6248114;22;20487;-86
2022/10/28 04:30:14;;;;;;;10.18;7.25;;;14.10;99.90;;;;;;6277015;22;20105;-86
2022/10/28 04:32:41;;;;;;;10.00;6.60;;;14.10;99.90;;;;;;6277303;22;20090;-86
2022/10/28 04:35:07;;;;;;;10.40;7.10;;;14.00;99.90;;;;;;6246434;22;20027;-86
2022/10/28 04:37:33;;;;;;;9.20;6.75;;;14.10;99.90;;;;;;6247302;22;20061;-85
2022/10/28 04:39:58;;;;;;;9.95;7.03;;;14.10;99.90;;;;;;6247476;22;20023;-86
2022/10/28 04:42:24;;;;;;;11.27;7.07;;;14.00;99.90;;;;;;6249133;22;20012;-86
2022/10/28 04:44:50;;;;;;;10.27;6.30;;;14.00;99.90;;;;;;6276669;22;20023;-86
2022/10/28 04:47:16;;;;;;;10.27;6.78;;;14.00;99.90;;;;;;6276976;22;20444;-85
2022/10/28 04:49:42;;;;;;;8.45;6.63;;;14.00;99.90;;;;;;6275593;22;20450;-86
2022/10/28 04:52:08;;;;;;;9.70;6.28;;;14.00;99.90;;;;;;6276173;22;20087;-86
2022/10/28 04:54:34;;;;;;;10.02;6.90;;;14.00;99.90;;;;;;6275158;22;20023;-86
2022/10/28 04:56:59;;;;;;;12.45;7.03;;;13.90;99.90;;;;;;6274603;22;20012;-86
2022/10/28 04:59:25;;;;;;;10.40;6.88;;;13.90;99.90;;;;;;6248477;22;20399;-86
2022/10/28 05:01:51;;;;;;;9.05;6.28;;;13.90;99.90;;;;;;6248123;22;20008;-87
2022/10/28 05:04:16;;;;;;;11.50;7.20;;;13.90;99.90;;;;;;6274416;22;20020;-87
2022/10/28 05:06:42;;;;;;;10.32;7.15;;;13.90;99.90;;;;;;6248841;22;20020;-86
2022/10/28 05:09:07;;;;;;;14.95;8.88;;;13.80;99.90;;;;;;6249334;22;20039;-86
2022/10/28 05:11:33;;;;;;;10.00;7.35;;;13.90;99.90;;;;;;6248801;22;20069;-86
2022/10/28 05:13:58;;;;;;;14.38;7.63;;;13.90;99.90;;;;;;6249265;22;20015;-86
2022/10/28 05:20:53;;;;;;;10.85;6.72;;;13.80;99.90;;;;;;6163209;23;20425;-96
2022/10/28 05:25:54;;;;;;;10.27;6.70;;;13.70;99.90;;;;;;6276963;22;20024;-86
2022/10/28 05:28:20;;;;;;;11.05;6.70;;;13.70;99.90;;;;;;6275650;22;20012;-88
2022/10/28 05:30:46;;;;;;;11.98;7.22;;;13.70;99.90;;;;;;6274480;22;20123;-88
2022/10/28 05:33:12;;;;;;;10.65;6.93;;;13.70;99.90;;;;;;6247581;22;20016;-87
2022/10/28 05:35:38;;;;;;;13.18;7.18;;;13.70;99.90;;;;;;6275083;22;20016;-87
2022/10/28 05:38:04;;;;;;;11.00;6.72;;;13.70;99.90;;;;;;6274756;22;20038;-92
2022/10/28 05:40:31;;;;;;;11.02;7.03;;;13.70;99.90;;;;;;6250058;22;20015;-91
2022/10/28 05:42:57;;;;;;;10.35;6.85;;;13.70;99.90;;;;;;6249949;22;20015;-91
2022/10/28 05:45:23;;;;;;;9.75;6.80;;;13.60;99.90;;;;;;6250125;22;20012;-91
2022/10/28 05:47:48;;;;;;;13.55;7.03;;;13.70;99.90;;;;;;6250215;22;20020;-92
2022/10/28 05:50:17;;;;;;;11.13;6.60;;;13.60;99.90;;;;;;6249873;22;20317;-91
2022/10/28 05:52:50;;;;;;;12.23;6.90;;;13.60;99.90;;;;;;6248182;22;20026;-91
2022/10/28 05:55:18;;;;;;;9.50;6.60;;;13.70;99.90;;;;;;6274736;22;20391;-86
2022/10/28 05:57:48;;;;;;;9.38;6.55;;;13.60;99.90;;;;;;6276185;22;20332;-86
2022/10/28 06:00:15;;;;;;;11.00;6.65;;;13.60;99.90;;;;;;6248323;22;20064;-87
2022/10/28 06:02:41;;;;;;;10.63;7.40;;;13.60;99.90;;;;;;6248957;22;20008;-89
2022/10/28 06:05:10;;;;;;;9.45;6.80;;;13.60;99.90;;;;;;6276275;22;20016;-85
2022/10/28 06:07:37;;;;;;;9.90;6.47;;;13.60;99.90;;;;;;6275800;22;20008;-86
2022/10/28 06:10:04;;;;;;;9.45;6.53;;;13.60;99.90;;;;;;6276629;22;20407;-85
2022/10/28 06:12:30;;;;;;;11.55;7.22;;;13.60;99.90;;;;;;6247822;22;20098;-86
2022/10/28 06:14:55;;;;;;;9.40;6.88;;;13.60;99.90;;;;;;6275428;22;20069;-88
2022/10/28 06:17:21;;;;;;;10.98;6.88;;;13.50;99.90;;;;;;6248740;22;20452;-85
2022/10/28 06:19:46;;;;;;;10.30;7.18;;;13.50;99.90;;;;;;6275841;22;20089;-87
2022/10/28 06:22:12;;;;;;;12.05;7.15;;;13.50;99.90;;;;;;6248330;22;20016;-87
2022/10/28 06:24:38;;;;;;;9.95;6.72;;;13.50;99.90;;;;;;6276153;22;20459;-87
2022/10/28 06:27:03;;;;;;;10.23;6.82;;;13.50;99.90;;;;;;6276096;22;20012;-87
2022/10/28 06:29:30;;;;;;;9.75;6.35;;;13.50;99.90;;;;;;6248520;22;20352;-87
2022/10/28 06:31:57;;;;;;;10.57;6.28;;;13.50;99.90;;;;;;6248950;22;20062;-86
2022/10/28 06:34:22;;;;;;;14.77;7.35;;;13.50;99.90;;;;;;6248399;22;20027;-87
2022/10/28 06:36:48;;;;;;;8.98;6.45;;;13.50;99.90;;;;;;6276631;22;20019;-87
2022/10/28 06:39:14;;;;;;;12.45;6.35;;;13.50;99.90;;;;;;6248825;22;20012;-88
2022/10/28 06:41:39;;;;;;;11.40;6.30;;;13.50;99.90;;;;;;6248507;22;20101;-88
2022/10/28 06:44:05;;;;;;;18.42;8.52;;;13.50;99.90;;;;;;6249065;22;20012;-88
2022/10/28 06:46:31;;;;;;;13.43;7.57;;;13.50;99.90;;;;;;6276503;22;20027;-87
2022/10/28 06:48:56;;;;;;;12.95;7.50;;;13.50;99.90;;;;;;6275115;22;20091;-86
2022/10/28 06:51:23;;;;;;;12.98;7.82;;;13.50;99.90;;;;;;6248792;22;20051;-86
2022/10/28 06:53:50;;;;;;;19.48;9.25;;;13.50;99.90;;;;;;6276136;22;20042;-85
2022/10/28 06:56:15;;;;;;;17.80;9.20;;;13.50;99.90;;;;;;6247337;22;20015;-85
2022/10/28 06:58:41;;;;;;;14.23;7.60;;;13.50;99.90;;;;;;6247620;22;20111;-86
2022/10/28 07:01:06;;;;;;;15.98;8.40;;;13.60;99.90;;;;;;6247426;22;20440;-86
2022/10/28 07:03:32;;;;;;;19.55;9.43;;;13.60;99.90;;;;;;6247016;22;20016;-86
2022/10/28 07:05:58;;;;;;;18.30;10.48;;;13.60;99.90;;;;;;6249370;22;20040;-86
2022/10/28 07:08:25;;;;;;;13.45;7.35;;;13.60;99.90;;;;;;6278160;22;20065;-87
2022/10/28 07:10:55;;;;;;;20.10;9.32;;;13.60;99.90;;;;;;6277204;22;20317;-86
2022/10/28 07:13:21;;;;;;;20.52;9.85;;;13.70;99.90;;;;;;6250826;22;20008;-86
2022/10/28 07:15:58;;;;;;;22.58;9.68;;;13.70;99.90;;;;;;6250273;22;20165;-86
2022/10/28 07:18:25;;;;;;;15.07;8.40;;;13.70;99.90;;;;;;6250087;22;20039;-84
2022/10/28 07:20:50;;;;;;;17.80;7.70;;;13.70;99.90;;;;;;6250461;22;20065;-83
2022/10/28 07:23:17;;;;;;;24.08;8.65;;;13.80;99.90;;;;;;6251011;22;20039;-93
2022/10/28 07:26:03;;;;;;;21.67;9.20;;;13.80;99.90;;;;;;6278011;22;20070;-94
2022/10/28 07:28:37;;;;;;;16.67;8.80;;;13.80;99.90;;;;;;6278042;22;20024;-93
2022/10/28 07:31:09;;;;;;;22.67;9.88;;;13.90;99.90;;;;;;6251386;22;20456;-93
2022/10/28 07:33:41;;;;;;;14.95;7.68;;;13.90;99.90;;;;;;6251655;22;20020;-94
2022/10/28 07:36:22;;;;;;;20.23;9.32;;;13.90;99.90;;;;;;6251485;22;20043;-93
2022/10/28 07:38:53;;;;;;;21.02;9.60;;;13.90;99.90;;;;;;6251511;22;20020;-93
2022/10/28 07:41:20;;;;;;;23.10;11.13;;;14.00;99.90;;;;;;6251791;22;20019;-91
2022/10/28 07:43:50;;;;;;;17.67;8.30;;;14.10;99.90;;;;;;6251400;22;20344;-93
2022/10/28 07:46:21;;;;;;;20.85;10.30;;;14.10;99.90;;;;;;6251006;22;20023;-94
2022/10/28 07:49:05;;;;;;;21.60;8.73;;;14.10;99.90;;;;;;6251370;22;20016;-94
2022/10/28 07:54:00;;;;;;;20.13;9.05;;;14.20;99.90;;;;;;6163579;23;20469;-83
2022/10/28 07:56:32;;;;;;;24.55;10.02;;;14.20;99.90;;;;;;6156396;23;20017;-86
2022/10/28 07:58:59;;;;;;;21.55;8.40;;;14.30;99.90;;;;;;6128727;23;20374;-86
2022/10/28 08:01:25;;;;;;;20.58;9.82;;;14.30;99.90;;;;;;6157204;23;20010;-84
2022/10/28 08:03:50;;;;;;;21.50;9.57;;;14.40;99.90;;;;;;6152854;23;20088;-87
2022/10/28 08:06:19;;;;;;;23.90;8.57;;;14.40;99.90;;;;;;6125123;23;20024;-85
2022/10/28 08:08:46;;;;;;;15.60;7.05;;;14.50;99.90;;;;;;6129728;23;20014;-84
2022/10/28 08:11:15;;;;;;;23.55;8.73;;;14.50;99.90;;;;;;6130611;23;20040;-84
2022/10/28 08:13:41;;;;;;;19.25;8.82;;;14.60;99.90;;;;;;6129507;23;20013;-85
2022/10/28 08:16:07;;;;;;;19.15;8.02;;;14.60;99.90;;;;;;6129781;23;20025;-84
2022/10/28 08:18:33;;;;;;;16.95;7.68;;;14.70;99.90;;;;;;6156703;23;20010;-91
2022/10/28 08:21:04;;;;;;;16.63;7.60;;;14.70;99.90;;;;;;6131421;23;20081;-90
2022/10/28 08:23:29;;;;;;;17.55;7.30;;;14.80;99.90;;;;;;6130367;23;20021;-86
2022/10/28 08:25:55;;;;;;;16.33;7.68;;;14.80;99.90;;;;;;6130048;23;20345;-85
2022/10/28 08:28:24;;;;;;;18.58;7.07;;;14.90;99.90;;;;;;6134298;23;20156;-94
2022/10/28 08:31:15;;;;;;;17.05;6.95;;;14.90;99.90;;;;;;6149184;23;20020;-96
2022/10/28 08:33:52;;;;;;;16.67;7.10;;;15.00;99.90;;;;;;6194236;23;20017;-93
2022/10/28 08:36:18;;;;;;;18.77;7.15;;;15.10;99.90;;;;;;6165238;23;20073;-94
2022/10/28 08:38:45;;;;;;;21.23;7.50;;;15.20;99.90;;;;;;6186470;23;20327;-84
2022/10/28 08:41:34;;;;;;;21.98;7.18;;;15.20;99.90;;;;;;6159201;23;20021;-84
2022/10/28 08:44:06;;;;;;;18.67;7.13;;;15.30;99.90;;;;;;6186210;23;20040;-84
2022/10/28 08:47:09;;;;;;;19.80;7.07;;;15.40;99.90;;;;;;6186798;23;20094;-84
2022/10/28 08:49:39;;;;;;;21.52;6.90;;;15.40;99.90;;;;;;6185665;23;20028;-84
2022/10/28 08:52:15;;;;;;;16.30;6.53;;;15.50;99.90;;;;;;6185709;23;20460;-84
2022/10/28 08:54:49;;;;;;;14.93;6.05;;;15.60;99.90;;;;;;6186053;23;20338;-84
2022/10/28 08:57:22;;;;;;;17.67;6.13;;;15.60;99.90;;;;;;6158841;23;20465;-84
2022/10/28 08:59:52;;;;;;;20.17;6.35;;;15.70;99.90;;;;;;6186324;23;20040;-85
2022/10/28 09:02:29;;;;;;;20.08;6.60;;;15.80;99.90;;;;;;6158687;23;20021;-84
2022/10/28 09:05:06;;;;;;;15.63;6.30;;;15.90;99.90;;;;;;6159569;23;20021;-84
2022/10/28 09:07:34;;;;;;;16.10;5.93;;;15.90;99.90;;;;;;6186622;23;20072;-84
2022/10/28 09:10:00;;;;;;;13.65;5.50;;;16.00;99.90;;;;;;6185272;23;20021;-84
2022/10/28 09:12:52;;;;;;;17.65;6.63;;;16.10;99.90;;;;;;6159832;23;20433;-83
2022/10/28 09:15:27;;;;;;;17.20;6.22;;;16.20;99.90;;;;;;6159868;23;20060;-84
2022/10/28 09:18:11;;;;;;;18.48;6.03;;;16.20;99.90;;;;;;6158447;23;20027;-84
2022/10/28 09:20:55;;;;;;;17.73;6.05;;;16.30;99.90;;;;;;6159648;23;20009;-84
2022/10/28 09:23:29;;;;;;;20.50;5.60;;;16.30;99.90;;;;;;6185433;23;20330;-84
2022/10/28 09:26:32;;;;;;;16.33;6.05;;;16.40;99.90;;;;;;6159577;23;20028;-84
2022/10/28 09:29:31;;;;;;;14.98;5.72;;;16.40;99.90;;;;;;6158890;23;20017;-83
2022/10/28 09:32:00;;;;;;;15.52;5.90;;;16.50;99.90;;;;;;6184433;23;20013;-83
2022/10/28 09:34:33;;;;;;;16.48;5.70;;;16.50;99.90;;;;;;6186213;23;20024;-83
2022/10/28 09:37:03;;;;;;;17.05;5.50;;;16.50;99.90;;;;;;6185775;23;20005;-84
2022/10/28 09:39:38;;;;;;;15.98;5.85;;;16.60;99.90;;;;;;6158462;23;20452;-84
2022/10/28 09:42:04;;;;;;;16.63;5.82;;;16.60;99.90;;;;;;6159175;23;20020;-83
2022/10/28 09:44:38;;;;;;;17.48;5.93;;;16.70;99.90;;;;;;6185329;23;20017;-83
2022/10/28 09:47:15;;;;;;;15.93;5.75;;;16.70;99.90;;;;;;6185856;23;20009;-83
2022/10/28 09:49:42;;;;;;;19.45;6.15;;;16.70;99.90;;;;;;6186018;23;20028;-83
2022/10/28 09:52:07;;;;;;;14.13;5.90;;;16.70;99.90;;;;;;6158199;23;20064;-83
2022/10/28 09:54:50;;;;;;;13.63;5.35;;;16.80;99.90;;;;;;6186172;23;20017;-83
2022/10/28 09:57:16;;;;;;;17.77;6.68;;;16.80;99.90;;;;;;6159472;23;20013;-83
2022/10/28 09:59:41;;;;;;;17.38;6.15;;;16.80;99.90;;;;;;6185216;23;20063;-84
2022/10/28 10:02:25;;;;;;;21.85;5.80;;;16.90;99.90;;;;;;6159369;23;20017;-83
2022/10/28 10:04:52;;;;;;;13.75;5.65;;;16.90;99.90;;;;;;6185777;23;20035;-84
2022/10/28 10:07:30;;;;;;;15.00;6.32;;;16.90;99.90;;;;;;6183305;23;20017;-84
2022/10/28 10:10:00;;;;;;;16.83;5.85;;;17.00;99.90;;;;;;6169449;23;20024;-83
2022/10/28 10:12:27;;;;;;;16.30;5.82;;;17.00;99.90;;;;;;6185412;23;20013;-83
2022/10/28 10:14:55;;;;;;;23.13;6.50;;;17.00;99.90;;;;;;6158745;23;20028;-83
2022/10/28 10:17:25;;;;;;;16.63;6.10;;;17.10;99.90;;;;;;6159054;23;20013;-83
2022/10/28 10:20:05;;;;;;;18.25;5.65;;;17.10;99.90;;;;;;6157773;23;20013;-84
2022/10/28 10:22:34;;;;;;;22.73;5.70;;;17.10;99.90;;;;;;6159042;23;20441;-83
2022/10/28 10:24:59;;;;;;;17.63;5.97;;;17.10;99.90;;;;;;6158966;23;20027;-83
2022/10/28 10:27:27;;;;;;;20.95;5.85;;;17.20;99.90;;;;;;6190712;23;20017;-83
2022/10/28 10:29:54;;;;;;;15.60;5.93;;;17.20;99.90;;;;;;6158594;23;20017;-83
2022/10/28 10:32:29;;;;;;;20.55;6.30;;;17.20;99.90;;;;;;6185403;23;20013;-84
2022/10/28 10:35:17;;;;;;;14.90;5.55;;;17.30;99.90;;;;;;6184549;23;20044;-83
2022/10/28 10:37:45;;;;;;;23.17;5.53;;;17.30;99.90;;;;;;6185620;23;20096;-84
2022/10/28 10:40:23;;;;;;;17.48;5.80;;;17.30;99.90;;;;;;6187330;23;20055;-84
2022/10/28 10:42:49;;;;;;;15.43;5.53;;;17.40;99.90;;;;;;6159775;23;20024;-83
2022/10/28 10:45:14;;;;;;;18.77;5.45;;;17.50;99.90;;;;;;6161069;23;20079;-84
2022/10/28 10:47:40;;;;;;;15.07;5.50;;;17.50;99.90;;;;;;6186651;23;20049;-84
2022/10/28 10:50:21;;;;;;;16.45;5.43;;;17.60;99.90;;;;;;6186809;23;20013;-83
2022/10/28 10:52:52;;;;;;;13.32;5.38;;;17.70;99.90;;;;;;6160812;23;20017;-84
2022/10/28 10:55:23;;;;;;;35.63;6.20;;;17.70;99.90;;;;;;6160225;23;20437;-83
2022/10/28 10:57:49;;;;;;;26.35;6.25;;;17.80;99.90;;;;;;6187541;23;20017;-84
2022/10/28 11:00:19;;;;;;;25.70;6.50;;;17.90;99.90;;;;;;6161057;23;20024;-84
2022/10/28 11:02:46;;;;;;;18.95;5.55;;;17.90;99.90;;;;;;6159513;23;20052;-84
2022/10/28 11:05:22;;;;;;;19.90;6.07;;;18.00;99.60;;;;;;6161000;23;20017;-84
2022/10/28 11:07:50;;;;;;;19.35;5.43;;;18.00;99.30;;;;;;6160663;23;20013;-84
2022/10/28 11:10:28;;;;;;;21.98;5.78;;;18.20;99.30;;;;;;6186418;23;20021;-84
2022/10/28 11:13:00;;;;;;;17.92;5.05;;;18.20;99.20;;;;;;6187113;23;20013;-84
2022/10/28 11:15:28;;;;;;;15.70;5.13;;;18.20;99.20;;;;;;6186638;23;20021;-84
2022/10/28 11:18:19;;;;;;;22.05;5.57;;;18.30;99.10;;;;;;6159451;23;20013;-85
2022/10/28 11:21:06;;;;;;;17.15;5.53;;;18.30;99.10;;;;;;6187426;23;20040;-84
2022/10/28 11:23:47;;;;;;;21.05;5.47;;;18.40;99.00;;;;;;6160026;23;20063;-84
2022/10/28 11:26:16;;;;;;;18.20;5.55;;;18.40;98.90;;;;;;6186817;23;20457;-83
2022/10/28 11:28:50;;;;;;;12.95;4.68;;;18.50;98.90;;;;;;6160239;23;20331;-84
2022/10/28 11:31:21;;;;;;;14.75;5.05;;;18.50;98.70;;;;;;6159721;23;20024;-84
2022/10/28 11:34:11;;;;;;;19.90;5.00;;;18.60;98.50;;;;;;6186740;23;20469;-84
2022/10/28 11:36:53;;;;;;;18.40;5.20;;;18.60;98.50;;;;;;6187463;23;20344;-84
2022/10/28 11:39:33;;;;;;;13.45;4.82;;;18.70;98.60;;;;;;6160676;23;20068;-83
2022/10/28 11:42:03;;;;;;;19.55;5.30;;;18.70;98.50;;;;;;6160271;23;20012;-84
2022/10/28 11:44:40;;;;;;;18.27;5.50;;;18.70;98.50;;;;;;6185820;23;20040;-84
2022/10/28 11:47:14;;;;;;;16.00;5.13;;;18.80;98.90;;;;;;6160150;23;20453;-83
2022/10/28 11:50:11;;;;;;;18.27;5.90;;;18.80;98.40;;;;;;6160979;23;20147;-84
2022/10/28 11:52:57;;;;;;;21.83;5.30;;;18.80;98.40;;;;;;6186030;23;20072;-84
2022/10/28 11:55:41;;;;;;;16.08;5.45;;;18.90;98.40;;;;;;6187477;23;20017;-84
2022/10/28 11:58:25;;;;;;;17.30;5.20;;;18.90;98.50;;;;;;6159282;23;20021;-84
2022/10/28 12:01:24;;;;;;;17.70;5.80;;;18.90;98.40;;;;;;6160035;23;20445;-84
2022/10/28 12:04:21;;;;;;;15.65;5.50;;;18.90;98.40;;;;;;6159108;23;20072;-84
2022/10/28 12:06:56;;;;;;;14.68;5.53;;;19.00;98.40;;;;;;6159049;23;20429;-84
2022/10/28 12:09:24;;;;;;;24.77;5.68;;;19.00;98.40;;;;;;6160294;23;20017;-84
2022/10/28 12:12:15;;;;;;;26.92;6.47;;;19.00;98.40;;;;;;6159719;23;20052;-84
2022/10/28 12:14:50;;;;;;;17.00;5.90;;;19.10;98.30;;;;;;6186896;23;20048;-84
2022/10/28 12:17:34;;;;;;;19.40;5.43;;;19.10;98.30;;;;;;6160156;23;20461;-84
2022/10/28 12:20:20;;;;;;;19.65;5.43;;;19.20;98.30;;;;;;6185179;23;20453;-84
2022/10/28 12:22:49;;;;;;;19.80;6.10;;;19.20;98.30;;;;;;6159844;23;20055;-84
2022/10/28 12:25:31;;;;;;;18.10;5.68;;;19.20;98.30;;;;;;6160249;23;20025;-84
2022/10/28 12:28:04;;;;;;;19.88;5.80;;;19.20;98.10;;;;;;6158704;23;20059;-84
2022/10/28 12:30:34;;;;;;;23.05;6.22;;;19.30;98.10;;;;;;6186682;23;20092;-84
2022/10/28 12:33:29;;;;;;;18.38;5.72;;;19.30;98.00;;;;;;6185577;23;20044;-84
2022/10/28 12:36:16;;;;;;;19.88;5.82;;;19.30;97.90;;;;;;6157237;23;20100;-84
2022/10/28 12:38:55;;;;;;;18.02;5.40;;;19.30;98.20;;;;;;6160127;23;20110;-84
2022/10/28 12:41:25;;;;;;;19.20;5.70;;;19.30;97.90;;;;;;6159055;23;20307;-84
2022/10/28 12:44:07;;;;;;;17.23;5.07;;;19.40;97.90;;;;;;6159620;23;20014;-84
2022/10/28 12:47:04;;;;;;;18.20;4.82;;;19.40;97.80;;;;;;6159835;23;20088;-84
2022/10/28 12:49:47;;;;;;;20.98;5.88;;;19.40;97.70;;;;;;6185210;23;20017;-85
2022/10/28 12:52:32;;;;;;;;;;;19.40;97.70;;;;;;6160477;23;20015;-84
2022/10/28 12:55:06;;;;;;;15.88;5.28;;;19.40;97.90;;;;;;6158424;23;19958;-83
2022/10/28 12:57:34;;;;;;;21.13;5.57;;;19.40;97.90;;;;;;6186630;23;20017;-84
2022/10/28 13:00:06;;;;;;;18.70;5.53;;;19.50;97.90;;;;;;6159256;23;20024;-83
2022/10/28 13:02:42;;;;;;;22.05;6.72;;;19.50;97.80;;;;;;6158318;23;20092;-83
2022/10/28 13:05:19;;;;;;;15.75;5.55;;;19.50;97.60;;;;;;6159280;23;20017;-83
2022/10/28 13:08:06;;;;;;;20.95;5.38;;;19.50;97.60;;;;;;6159197;23;20049;-83
2022/10/28 13:10:37;;;;;;;17.85;5.00;;;19.50;97.50;;;;;;6159061;23;20068;-82